« Back
NWS Peachtree City, Ga » Text Product » MCN Terminal Aerodrome Forecast


Printer-friendly Version
Current Version              Previous Versions:   1  2  3  4  5  6  7  8  9  

Terminal Aerodrome Forecast

437
FTUS42 KFFC 271121
TAFMCN
TAF
KMCN 271121Z 2712/2812 32002KT P6SM SCT250
     FM271300 35008KT P6SM SCT250
     FM271500 36006KT P6SM SCT250
     FM280000 01005KT P6SM SCT250=



USA.gov is the U.S. government's official web portal to all federal, state and local government web resources and services.